sensor_id;sensor_type;location;lat;lon;timestamp;temperature;humidity
24152;DHT22;12311;50.866;4.332;2023-10-13T00:02:07;18.30;99.90
24152;DHT22;12311;50.866;4.332;2023-10-13T00:04:33;18.40;99.90
24152;DHT22;12311;50.866;4.332;2023-10-13T00:07:03;18.30;99.90
24152;DHT22;12311;50.866;4.332;2023-10-13T00:09:29;18.30;99.90
24152;DHT22;12311;50.866;4.332;2023-10-13T00:12:01;18.40;99.90
24152;DHT22;12311;50.866;4.332;2023-10-13T00:14:28;18.30;99.90
24152;DHT22;12311;50.866;4.332;2023-10-13T00:17:05;18.40;99.90
24152;DHT22;12311;50.866;4.332;2023-10-13T00:19:37;18.50;99.90
24152;DHT22;12311;50.866;4.332;2023-10-13T00:22:10;18.50;99.90
24152;DHT22;12311;50.866;4.332;2023-10-13T00:24:40;18.40;99.90
24152;DHT22;12311;50.866;4.332;2023-10-13T00:27:10;18.40;99.90
24152;DHT22;12311;50.866;4.332;2023-10-13T00:30:03;18.40;99.90
24152;DHT22;12311;50.866;4.332;2023-10-13T00:32:48;18.40;99.90
24152;DHT22;12311;50.866;4.332;2023-10-13T00:35:28;18.50;99.90
24152;DHT22;12311;50.866;4.332;2023-10-13T00:37:58;18.40;99.90
24152;DHT22;12311;50.866;4.332;2023-10-13T00:40:30;18.40;99.90
24152;DHT22;12311;50.866;4.332;2023-10-13T00:42:57;18.40;99.90
24152;DHT22;12311;50.866;4.332;2023-10-13T00:45:41;18.50;99.90
24152;DHT22;12311;50.866;4.332;2023-10-13T00:48:09;18.50;99.90
24152;DHT22;12311;50.866;4.332;2023-10-13T00:50:37;18.50;99.90
24152;DHT22;12311;50.866;4.332;2023-10-13T00:53:04;18.30;99.90
24152;DHT22;12311;50.866;4.332;2023-10-13T00:55:30;18.30;99.90
24152;DHT22;12311;50.866;4.332;2023-10-13T00:58:00;18.30;99.90
24152;DHT22;12311;50.866;4.332;2023-10-13T01:00:29;18.30;99.90
24152;DHT22;12311;50.866;4.332;2023-10-13T01:02:56;18.40;99.90
24152;DHT22;12311;50.866;4.332;2023-10-13T01:05:23;18.30;99.90
24152;DHT22;12311;50.866;4.332;2023-10-13T01:07:49;18.30;99.90
24152;DHT22;12311;50.866;4.332;2023-10-13T01:10:18;18.40;99.90
24152;DHT22;12311;50.866;4.332;2023-10-13T01:12:45;18.40;99.90
24152;DHT22;12311;50.866;4.332;2023-10-13T01:15:12;18.30;99.90
24152;DHT22;12311;50.866;4.332;2023-10-13T01:17:42;18.40;99.90
24152;DHT22;12311;50.866;4.332;2023-10-13T01:20:10;18.30;99.90
24152;DHT22;12311;50.866;4.332;2023-10-13T01:22:38;18.30;99.90
24152;DHT22;12311;50.866;4.332;2023-10-13T01:25:04;18.30;99.90
24152;DHT22;12311;50.866;4.332;2023-10-13T01:27:37;18.40;99.90
24152;DHT22;12311;50.866;4.332;2023-10-13T01:30:04;18.50;99.90
24152;DHT22;12311;50.866;4.332;2023-10-13T01:32:39;18.50;99.90
24152;DHT22;12311;50.866;4.332;2023-10-13T01:35:10;18.50;99.90
24152;DHT22;12311;50.866;4.332;2023-10-13T01:37:36;18.50;99.90
24152;DHT22;12311;50.866;4.332;2023-10-13T01:40:02;18.50;99.90
24152;DHT22;12311;50.866;4.332;2023-10-13T01:42:27;18.60;99.90
24152;DHT22;12311;50.866;4.332;2023-10-13T01:44:54;18.50;99.90
24152;DHT22;12311;50.866;4.332;2023-10-13T01:47:31;18.50;99.90
24152;DHT22;12311;50.866;4.332;2023-10-13T01:49:58;18.50;99.90
24152;DHT22;12311;50.866;4.332;2023-10-13T01:52:32;18.50;99.90
24152;DHT22;12311;50.866;4.332;2023-10-13T01:54:58;18.50;99.90
24152;DHT22;12311;50.866;4.332;2023-10-13T01:57:26;18.50;99.90
24152;DHT22;12311;50.866;4.332;2023-10-13T01:59:53;18.50;99.90
24152;DHT22;12311;50.866;4.332;2023-10-13T02:02:21;18.50;99.90
24152;DHT22;12311;50.866;4.332;2023-10-13T02:04:55;18.50;99.90
24152;DHT22;12311;50.866;4.332;2023-10-13T02:07:23;18.40;99.90
24152;DHT22;12311;50.866;4.332;2023-10-13T02:09:55;18.40;99.90
24152;DHT22;12311;50.866;4.332;2023-10-13T02:12:21;18.30;99.90
24152;DHT22;12311;50.866;4.332;2023-10-13T02:15:01;18.30;99.90
24152;DHT22;12311;50.866;4.332;2023-10-13T02:17:26;18.30;99.90
24152;DHT22;12311;50.866;4.332;2023-10-13T02:19:52;18.40;99.90
24152;DHT22;12311;50.866;4.332;2023-10-13T02:22:19;18.40;99.90
24152;DHT22;12311;50.866;4.332;2023-10-13T02:24:55;18.50;99.90
24152;DHT22;12311;50.866;4.332;2023-10-13T02:27:27;18.50;99.90
24152;DHT22;12311;50.866;4.332;2023-10-13T02:29:52;18.50;99.90
24152;DHT22;12311;50.866;4.332;2023-10-13T02:32:24;18.50;99.90
24152;DHT22;12311;50.866;4.332;2023-10-13T02:34:50;18.50;99.90
24152;DHT22;12311;50.866;4.332;2023-10-13T02:37:15;18.50;99.90
24152;DHT22;12311;50.866;4.332;2023-10-13T02:39:44;18.50;99.90
24152;DHT22;12311;50.866;4.332;2023-10-13T02:42:10;18.50;99.90
24152;DHT22;12311;50.866;4.332;2023-10-13T02:44:49;18.50;99.90
24152;DHT22;12311;50.866;4.332;2023-10-13T02:47:15;18.50;99.90
24152;DHT22;12311;50.866;4.332;2023-10-13T02:49:41;18.50;99.90
24152;DHT22;12311;50.866;4.332;2023-10-13T02:52:11;18.40;99.90
24152;DHT22;12311;50.866;4.332;2023-10-13T02:54:38;18.50;99.90
24152;DHT22;12311;50.866;4.332;2023-10-13T02:57:22;18.40;99.90
24152;DHT22;12311;50.866;4.332;2023-10-13T02:59:49;18.40;99.90
24152;DHT22;12311;50.866;4.332;2023-10-13T03:02:37;18.40;99.90
24152;DHT22;12311;50.866;4.332;2023-10-13T03:05:09;18.40;99.90
24152;DHT22;12311;50.866;4.332;2023-10-13T03:07:38;18.40;99.90
24152;DHT22;12311;50.866;4.332;2023-10-13T03:10:08;18.50;99.90
24152;DHT22;12311;50.866;4.332;2023-10-13T03:12:41;18.40;99.90
24152;DHT22;12311;50.866;4.332;2023-10-13T03:15:08;18.40;99.90
24152;DHT22;12311;50.866;4.332;2023-10-13T03:17:44;18.30;99.90
24152;DHT22;12311;50.866;4.332;2023-10-13T03:20:10;18.40;99.90
24152;DHT22;12311;50.866;4.332;2023-10-13T03:22:40;18.40;99.90
24152;DHT22;12311;50.866;4.332;2023-10-13T03:25:13;18.40;99.90
24152;DHT22;12311;50.866;4.332;2023-10-13T03:27:49;18.40;99.90
24152;DHT22;12311;50.866;4.332;2023-10-13T03:30:18;18.40;99.90
24152;DHT22;12311;50.866;4.332;2023-10-13T03:32:46;18.40;99.90
24152;DHT22;12311;50.866;4.332;2023-10-13T03:35:14;18.50;99.90
24152;DHT22;12311;50.866;4.332;2023-10-13T03:37:50;18.50;99.90
24152;DHT22;12311;50.866;4.332;2023-10-13T03:40:16;18.40;99.90
24152;DHT22;12311;50.866;4.332;2023-10-13T03:42:51;18.40;99.90
24152;DHT22;12311;50.866;4.332;2023-10-13T03:45:37;18.40;99.90
24152;DHT22;12311;50.866;4.332;2023-10-13T03:48:14;18.40;99.90
24152;DHT22;12311;50.866;4.332;2023-10-13T03:51:01;18.40;99.90
24152;DHT22;12311;50.866;4.332;2023-10-13T03:53:40;18.40;99.90
24152;DHT22;12311;50.866;4.332;2023-10-13T03:56:19;18.40;99.90
24152;DHT22;12311;50.866;4.332;2023-10-13T03:59:05;18.40;99.90
24152;DHT22;12311;50.866;4.332;2023-10-13T04:01:32;18.40;99.90
24152;DHT22;12311;50.866;4.332;2023-10-13T04:04:24;18.40;99.90
24152;DHT22;12311;50.866;4.332;2023-10-13T04:06:59;18.40;99.90
24152;DHT22;12311;50.866;4.332;2023-10-13T04:09:35;18.40;99.90
24152;DHT22;12311;50.866;4.332;2023-10-13T04:12:06;18.50;99.90
24152;DHT22;12311;50.866;4.332;2023-10-13T04:14:44;18.50;99.90
24152;DHT22;12311;50.866;4.332;2023-10-13T04:17:28;18.50;99.90
24152;DHT22;12311;50.866;4.332;2023-10-13T04:19:57;18.50;99.90
24152;DHT22;12311;50.866;4.332;2023-10-13T04:22:44;18.50;99.90
24152;DHT22;12311;50.866;4.332;2023-10-13T04:27:53;18.50;99.90
24152;DHT22;12311;50.866;4.332;2023-10-13T04:30:43;18.40;99.90
24152;DHT22;12311;50.866;4.332;2023-10-13T04:33:30;18.40;99.90
24152;DHT22;12311;50.866;4.332;2023-10-13T04:36:18;18.40;99.90
24152;DHT22;12311;50.866;4.332;2023-10-13T04:38:50;18.40;99.90
24152;DHT22;12311;50.866;4.332;2023-10-13T04:41:32;18.40;99.90
24152;DHT22;12311;50.866;4.332;2023-10-13T04:44:14;18.40;99.90
24152;DHT22;12311;50.866;4.332;2023-10-13T04:47:08;18.30;99.90
24152;DHT22;12311;50.866;4.332;2023-10-13T04:49:40;18.30;99.90
24152;DHT22;12311;50.866;4.332;2023-10-13T04:52:09;18.30;99.90
24152;DHT22;12311;50.866;4.332;2023-10-13T04:54:45;18.30;99.90
24152;DHT22;12311;50.866;4.332;2023-10-13T04:57:15;18.30;99.90
24152;DHT22;12311;50.866;4.332;2023-10-13T05:00:02;18.30;99.90
24152;DHT22;12311;50.866;4.332;2023-10-13T05:02:39;18.30;99.90
24152;DHT22;12311;50.866;4.332;2023-10-13T05:05:14;18.40;99.90
24152;DHT22;12311;50.866;4.332;2023-10-13T05:07:40;18.30;99.90
24152;DHT22;12311;50.866;4.332;2023-10-13T05:10:25;18.40;99.90
24152;DHT22;12311;50.866;4.332;2023-10-13T05:13:09;18.30;99.90
24152;DHT22;12311;50.866;4.332;2023-10-13T05:15:54;18.40;99.90
24152;DHT22;12311;50.866;4.332;2023-10-13T05:18:38;18.40;99.90
24152;DHT22;12311;50.866;4.332;2023-10-13T05:21:22;18.40;99.90
24152;DHT22;12311;50.866;4.332;2023-10-13T05:24:07;18.50;99.90
24152;DHT22;12311;50.866;4.332;2023-10-13T05:26:52;18.50;99.90
24152;DHT22;12311;50.866;4.332;2023-10-13T05:29:44;18.50;99.90
24152;DHT22;12311;50.866;4.332;2023-10-13T05:32:29;18.60;99.90
24152;DHT22;12311;50.866;4.332;2023-10-13T05:35:31;18.60;99.90
24152;DHT22;12311;50.866;4.332;2023-10-13T05:38:15;18.50;99.90
24152;DHT22;12311;50.866;4.332;2023-10-13T05:41:02;18.50;99.90
24152;DHT22;12311;50.866;4.332;2023-10-13T05:43:47;18.50;99.90
24152;DHT22;12311;50.866;4.332;2023-10-13T05:46:32;18.50;99.90
24152;DHT22;12311;50.866;4.332;2023-10-13T05:49:08;18.50;99.90
24152;DHT22;12311;50.866;4.332;2023-10-13T05:51:36;18.50;99.90
24152;DHT22;12311;50.866;4.332;2023-10-13T05:54:13;18.50;99.90
24152;DHT22;12311;50.866;4.332;2023-10-13T05:59:43;18.50;99.90
24152;DHT22;12311;50.866;4.332;2023-10-13T06:02:28;18.50;99.90
24152;DHT22;12311;50.866;4.332;2023-10-13T06:05:12;18.50;99.90
24152;DHT22;12311;50.866;4.332;2023-10-13T06:07:57;18.50;99.90
24152;DHT22;12311;50.866;4.332;2023-10-13T06:10:43;18.60;99.90
24152;DHT22;12311;50.866;4.332;2023-10-13T06:13:27;18.60;99.90
24152;DHT22;12311;50.866;4.332;2023-10-13T06:16:13;18.60;99.90
24152;DHT22;12311;50.866;4.332;2023-10-13T06:18:58;18.60;99.90
24152;DHT22;12311;50.866;4.332;2023-10-13T06:21:43;18.70;99.90
24152;DHT22;12311;50.866;4.332;2023-10-13T06:24:27;18.70;99.90
24152;DHT22;12311;50.866;4.332;2023-10-13T06:27:12;18.70;99.90
24152;DHT22;12311;50.866;4.332;2023-10-13T06:29:56;18.70;99.90
24152;DHT22;12311;50.866;4.332;2023-10-13T06:32:23;18.70;99.90
24152;DHT22;12311;50.866;4.332;2023-10-13T06:34:55;18.80;99.90
24152;DHT22;12311;50.866;4.332;2023-10-13T06:37:30;18.80;99.90
24152;DHT22;12311;50.866;4.332;2023-10-13T06:40:00;18.80;99.90
24152;DHT22;12311;50.866;4.332;2023-10-13T06:42:32;18.90;99.90
24152;DHT22;12311;50.866;4.332;2023-10-13T06:45:00;18.90;99.90
24152;DHT22;12311;50.866;4.332;2023-10-13T06:47:34;19.00;99.90
24152;DHT22;12311;50.866;4.332;2023-10-13T06:50:06;19.00;99.90
24152;DHT22;12311;50.866;4.332;2023-10-13T06:52:43;19.00;99.90
24152;DHT22;12311;50.866;4.332;2023-10-13T06:55:09;19.10;99.90
24152;DHT22;12311;50.866;4.332;2023-10-13T06:57:49;19.10;99.90
24152;DHT22;12311;50.866;4.332;2023-10-13T07:00:17;19.10;99.90
24152;DHT22;12311;50.866;4.332;2023-10-13T07:02:52;19.10;99.90
24152;DHT22;12311;50.866;4.332;2023-10-13T07:05:18;19.10;99.90
24152;DHT22;12311;50.866;4.332;2023-10-13T07:07:45;19.20;99.90
24152;DHT22;12311;50.866;4.332;2023-10-13T07:10:12;19.20;99.90
24152;DHT22;12311;50.866;4.332;2023-10-13T07:12:38;19.10;99.90
24152;DHT22;12311;50.866;4.332;2023-10-13T07:15:09;19.10;99.90
24152;DHT22;12311;50.866;4.332;2023-10-13T07:17:38;19.20;99.90
24152;DHT22;12311;50.866;4.332;2023-10-13T07:20:06;19.20;99.90
24152;DHT22;12311;50.866;4.332;2023-10-13T07:22:50;19.30;99.90
24152;DHT22;12311;50.866;4.332;2023-10-13T07:25:32;19.40;99.90
24152;DHT22;12311;50.866;4.332;2023-10-13T07:28:02;19.50;99.90
24152;DHT22;12311;50.866;4.332;2023-10-13T07:30:34;19.50;99.90
24152;DHT22;12311;50.866;4.332;2023-10-13T07:33:34;19.60;99.90
24152;DHT22;12311;50.866;4.332;2023-10-13T07:36:07;19.60;99.90
24152;DHT22;12311;50.866;4.332;2023-10-13T07:38:47;19.60;99.90
24152;DHT22;12311;50.866;4.332;2023-10-13T07:41:14;19.60;99.90
24152;DHT22;12311;50.866;4.332;2023-10-13T07:43:42;19.60;99.90
24152;DHT22;12311;50.866;4.332;2023-10-13T07:46:10;19.70;99.90
24152;DHT22;12311;50.866;4.332;2023-10-13T07:48:37;19.80;99.90
24152;DHT22;12311;50.866;4.332;2023-10-13T07:51:06;19.80;99.90
24152;DHT22;12311;50.866;4.332;2023-10-13T07:53:42;19.80;99.90
24152;DHT22;12311;50.866;4.332;2023-10-13T07:56:09;19.80;99.90
24152;DHT22;12311;50.866;4.332;2023-10-13T07:58:38;19.80;99.90
24152;DHT22;12311;50.866;4.332;2023-10-13T08:01:18;20.00;99.90
24152;DHT22;12311;50.866;4.332;2023-10-13T08:03:45;20.00;99.90
24152;DHT22;12311;50.866;4.332;2023-10-13T08:06:16;20.10;99.90
24152;DHT22;12311;50.866;4.332;2023-10-13T08:08:42;20.20;99.90
24152;DHT22;12311;50.866;4.332;2023-10-13T08:11:13;20.20;99.90
24152;DHT22;12311;50.866;4.332;2023-10-13T08:13:53;20.20;99.90
24152;DHT22;12311;50.866;4.332;2023-10-13T08:16:31;20.20;99.90
24152;DHT22;12311;50.866;4.332;2023-10-13T08:19:26;20.30;99.90
24152;DHT22;12311;50.866;4.332;2023-10-13T08:22:10;20.30;99.90
24152;DHT22;12311;50.866;4.332;2023-10-13T08:24:46;20.30;99.90
24152;DHT22;12311;50.866;4.332;2023-10-13T08:27:17;20.30;99.90
24152;DHT22;12311;50.866;4.332;2023-10-13T08:30:02;20.40;99.90
24152;DHT22;12311;50.866;4.332;2023-10-13T08:32:47;20.40;99.90
24152;DHT22;12311;50.866;4.332;2023-10-13T08:35:42;20.40;99.90
24152;DHT22;12311;50.866;4.332;2023-10-13T08:38:20;20.50;99.90
24152;DHT22;12311;50.866;4.332;2023-10-13T08:40:58;20.50;99.90
24152;DHT22;12311;50.866;4.332;2023-10-13T08:43:42;20.60;99.90
24152;DHT22;12311;50.866;4.332;2023-10-13T08:46:10;20.60;99.90
24152;DHT22;12311;50.866;4.332;2023-10-13T08:48:52;20.80;99.90
24152;DHT22;12311;50.866;4.332;2023-10-13T08:51:19;20.80;99.90
24152;DHT22;12311;50.866;4.332;2023-10-13T08:54:05;20.80;99.90
24152;DHT22;12311;50.866;4.332;2023-10-13T08:56:45;20.90;99.90
24152;DHT22;12311;50.866;4.332;2023-10-13T08:59:35;20.90;99.90
24152;DHT22;12311;50.866;4.332;2023-10-13T09:02:21;20.90;99.90
24152;DHT22;12311;50.866;4.332;2023-10-13T09:04:48;20.90;99.90
24152;DHT22;12311;50.866;4.332;2023-10-13T09:07:25;20.90;99.90
24152;DHT22;12311;50.866;4.332;2023-10-13T09:09:51;20.90;99.90
24152;DHT22;12311;50.866;4.332;2023-10-13T09:14:52;20.90;99.90
24152;DHT22;12311;50.866;4.332;2023-10-13T09:17:27;21.00;99.90
24152;DHT22;12311;50.866;4.332;2023-10-13T09:22:53;21.00;99.90
24152;DHT22;12311;50.866;4.332;2023-10-13T09:25:28;21.10;99.90
24152;DHT22;12311;50.866;4.332;2023-10-13T09:28:13;21.20;99.90
24152;DHT22;12311;50.866;4.332;2023-10-13T09:30:51;21.10;99.90
24152;DHT22;12311;50.866;4.332;2023-10-13T09:33:28;21.10;99.90
24152;DHT22;12311;50.866;4.332;2023-10-13T09:36:15;21.10;99.90
24152;DHT22;12311;50.866;4.332;2023-10-13T09:38:43;21.10;99.90
24152;DHT22;12311;50.866;4.332;2023-10-13T09:41:37;21.20;99.90
24152;DHT22;12311;50.866;4.332;2023-10-13T09:44:03;21.30;99.90
24152;DHT22;12311;50.866;4.332;2023-10-13T09:46:30;21.40;99.90
24152;DHT22;12311;50.866;4.332;2023-10-13T09:49:05;21.50;99.90
24152;DHT22;12311;50.866;4.332;2023-10-13T09:51:40;21.50;99.90
24152;DHT22;12311;50.866;4.332;2023-10-13T09:54:17;21.50;99.90
24152;DHT22;12311;50.866;4.332;2023-10-13T09:56:55;21.60;99.90
24152;DHT22;12311;50.866;4.332;2023-10-13T09:59:24;21.60;99.90
24152;DHT22;12311;50.866;4.332;2023-10-13T10:02:01;21.60;99.90
24152;DHT22;12311;50.866;4.332;2023-10-13T10:04:35;21.60;99.90
24152;DHT22;12311;50.866;4.332;2023-10-13T10:07:02;21.60;99.90
24152;DHT22;12311;50.866;4.332;2023-10-13T10:09:33;21.80;99.90
24152;DHT22;12311;50.866;4.332;2023-10-13T10:12:44;22.00;99.90
24152;DHT22;12311;50.866;4.332;2023-10-13T10:18:20;22.00;99.90
24152;DHT22;12311;50.866;4.332;2023-10-13T10:20:51;22.10;99.90
24152;DHT22;12311;50.866;4.332;2023-10-13T10:23:24;22.10;99.90
24152;DHT22;12311;50.866;4.332;2023-10-13T10:25:51;22.10;99.90
24152;DHT22;12311;50.866;4.332;2023-10-13T10:28:17;22.10;99.90
24152;DHT22;12311;50.866;4.332;2023-10-13T10:30:44;22.10;99.90
24152;DHT22;12311;50.866;4.332;2023-10-13T10:33:11;22.10;99.90
24152;DHT22;12311;50.866;4.332;2023-10-13T10:35:43;22.20;99.90
24152;DHT22;12311;50.866;4.332;2023-10-13T10:38:16;22.30;99.90
24152;DHT22;12311;50.866;4.332;2023-10-13T10:43:28;22.40;99.90
24152;DHT22;12311;50.866;4.332;2023-10-13T10:46:14;22.40;99.90
24152;DHT22;12311;50.866;4.332;2023-10-13T10:48:41;22.60;99.90
24152;DHT22;12311;50.866;4.332;2023-10-13T10:51:14;22.70;99.90
24152;DHT22;12311;50.866;4.332;2023-10-13T10:53:50;22.70;99.90
24152;DHT22;12311;50.866;4.332;2023-10-13T10:56:18;22.80;99.90
24152;DHT22;12311;50.866;4.332;2023-10-13T10:59:03;22.90;99.90
24152;DHT22;12311;50.866;4.332;2023-10-13T11:01:31;22.90;99.90
24152;DHT22;12311;50.866;4.332;2023-10-13T11:04:20;22.90;99.90
24152;DHT22;12311;50.866;4.332;2023-10-13T11:06:51;23.00;99.90
24152;DHT22;12311;50.866;4.332;2023-10-13T11:09:31;23.00;99.90
24152;DHT22;12311;50.866;4.332;2023-10-13T11:15:04;23.30;99.90
24152;DHT22;12311;50.866;4.332;2023-10-13T11:17:48;23.30;99.90
24152;DHT22;12311;50.866;4.332;2023-10-13T11:20:21;23.30;99.90
24152;DHT22;12311;50.866;4.332;2023-10-13T11:22:52;23.30;99.90
24152;DHT22;12311;50.866;4.332;2023-10-13T11:25:30;23.30;99.90
24152;DHT22;12311;50.866;4.332;2023-10-13T11:28:13;23.30;99.90
24152;DHT22;12311;50.866;4.332;2023-10-13T11:30:58;23.30;99.90
24152;DHT22;12311;50.866;4.332;2023-10-13T11:33:43;23.50;99.90
24152;DHT22;12311;50.866;4.332;2023-10-13T11:36:14;23.60;99.90
24152;DHT22;12311;50.866;4.332;2023-10-13T11:38:45;23.60;99.90
24152;DHT22;12311;50.866;4.332;2023-10-13T11:41:13;23.70;99.90
24152;DHT22;12311;50.866;4.332;2023-10-13T11:43:48;23.60;99.90
24152;DHT22;12311;50.866;4.332;2023-10-13T11:46:20;23.70;99.90
24152;DHT22;12311;50.866;4.332;2023-10-13T11:49:07;23.80;99.90
24152;DHT22;12311;50.866;4.332;2023-10-13T11:51:39;24.00;99.90
24152;DHT22;12311;50.866;4.332;2023-10-13T11:54:08;24.00;99.90
24152;DHT22;12311;50.866;4.332;2023-10-13T11:56:34;24.10;99.90
24152;DHT22;12311;50.866;4.332;2023-10-13T11:58:59;24.20;99.90
24152;DHT22;12311;50.866;4.332;2023-10-13T12:01:28;24.20;99.90
24152;DHT22;12311;50.866;4.332;2023-10-13T12:04:12;24.10;99.90
24152;DHT22;12311;50.866;4.332;2023-10-13T12:06:58;24.00;99.90
24152;DHT22;12311;50.866;4.332;2023-10-13T12:09:43;23.80;99.90
24152;DHT22;12311;50.866;4.332;2023-10-13T12:12:24;23.70;99.90
24152;DHT22;12311;50.866;4.332;2023-10-13T12:14:51;23.50;99.90
24152;DHT22;12311;50.866;4.332;2023-10-13T12:17:28;23.50;99.90
24152;DHT22;12311;50.866;4.332;2023-10-13T12:20:00;23.40;99.90
24152;DHT22;12311;50.866;4.332;2023-10-13T12:22:26;23.40;99.90
24152;DHT22;12311;50.866;4.332;2023-10-13T12:24:55;23.40;99.90
24152;DHT22;12311;50.866;4.332;2023-10-13T12:27:21;23.30;99.90
24152;DHT22;12311;50.866;4.332;2023-10-13T12:30:00;23.30;99.90
24152;DHT22;12311;50.866;4.332;2023-10-13T12:32:33;23.40;99.90
24152;DHT22;12311;50.866;4.332;2023-10-13T12:35:00;23.30;99.90
24152;DHT22;12311;50.866;4.332;2023-10-13T12:37:42;23.20;99.90
24152;DHT22;12311;50.866;4.332;2023-10-13T12:40:10;23.10;99.90
24152;DHT22;12311;50.866;4.332;2023-10-13T12:42:55;23.10;99.90
24152;DHT22;12311;50.866;4.332;2023-10-13T12:45:43;23.10;99.90
24152;DHT22;12311;50.866;4.332;2023-10-13T12:48:29;23.10;99.90
24152;DHT22;12311;50.866;4.332;2023-10-13T12:51:14;23.10;99.90
24152;DHT22;12311;50.866;4.332;2023-10-13T12:53:50;23.10;99.90
24152;DHT22;12311;50.866;4.332;2023-10-13T12:56:16;23.10;99.90
24152;DHT22;12311;50.866;4.332;2023-10-13T12:58:43;23.10;99.90
24152;DHT22;12311;50.866;4.332;2023-10-13T13:01:18;23.10;99.90
24152;DHT22;12311;50.866;4.332;2023-10-13T13:03:46;23.10;99.90
24152;DHT22;12311;50.866;4.332;2023-10-13T13:06:30;23.30;99.90
24152;DHT22;12311;50.866;4.332;2023-10-13T13:08:58;23.40;99.90
24152;DHT22;12311;50.866;4.332;2023-10-13T13:11:24;23.40;99.90
24152;DHT22;12311;50.866;4.332;2023-10-13T13:13:50;23.40;99.90
24152;DHT22;12311;50.866;4.332;2023-10-13T13:16:18;23.50;99.90
24152;DHT22;12311;50.866;4.332;2023-10-13T13:18:47;23.40;99.90
24152;DHT22;12311;50.866;4.332;2023-10-13T13:21:13;23.40;99.90
24152;DHT22;12311;50.866;4.332;2023-10-13T13:23:46;23.50;99.90
24152;DHT22;12311;50.866;4.332;2023-10-13T13:26:12;23.50;99.90
24152;DHT22;12311;50.866;4.332;2023-10-13T13:28:47;23.50;99.90
24152;DHT22;12311;50.866;4.332;2023-10-13T13:31:17;23.40;99.90
24152;DHT22;12311;50.866;4.332;2023-10-13T13:33:42;23.30;99.90
24152;DHT22;12311;50.866;4.332;2023-10-13T13:36:12;23.30;99.90
24152;DHT22;12311;50.866;4.332;2023-10-13T13:38:42;23.40;99.90
24152;DHT22;12311;50.866;4.332;2023-10-13T13:41:12;23.50;99.90
24152;DHT22;12311;50.866;4.332;2023-10-13T13:43:43;23.50;99.90
24152;DHT22;12311;50.866;4.332;2023-10-13T13:46:28;23.70;99.90
24152;DHT22;12311;50.866;4.332;2023-10-13T13:48:58;23.80;99.90
24152;DHT22;12311;50.866;4.332;2023-10-13T13:51:26;23.90;99.90
24152;DHT22;12311;50.866;4.332;2023-10-13T13:53:54;23.80;99.90
24152;DHT22;12311;50.866;4.332;2023-10-13T13:56:20;23.70;99.90
24152;DHT22;12311;50.866;4.332;2023-10-13T13:58:49;23.60;99.90
24152;DHT22;12311;50.866;4.332;2023-10-13T14:01:16;23.60;99.90
24152;DHT22;12311;50.866;4.332;2023-10-13T14:03:45;23.40;99.90
24152;DHT22;12311;50.866;4.332;2023-10-13T14:06:22;23.40;99.90
24152;DHT22;12311;50.866;4.332;2023-10-13T14:08:57;23.30;99.90
24152;DHT22;12311;50.866;4.332;2023-10-13T14:11:27;23.30;99.90
24152;DHT22;12311;50.866;4.332;2023-10-13T14:14:05;23.10;99.90
24152;DHT22;12311;50.866;4.332;2023-10-13T14:16:41;23.20;99.90
24152;DHT22;12311;50.866;4.332;2023-10-13T14:19:11;23.20;99.90
24152;DHT22;12311;50.866;4.332;2023-10-13T14:21:37;23.30;99.90
24152;DHT22;12311;50.866;4.332;2023-10-13T14:24:04;23.20;99.90
24152;DHT22;12311;50.866;4.332;2023-10-13T14:26:38;23.10;99.90
24152;DHT22;12311;50.866;4.332;2023-10-13T14:29:05;23.20;99.90
24152;DHT22;12311;50.866;4.332;2023-10-13T14:31:35;23.10;99.90
24152;DHT22;12311;50.866;4.332;2023-10-13T14:34:05;23.00;99.90
24152;DHT22;12311;50.866;4.332;2023-10-13T14:36:30;22.90;99.90
24152;DHT22;12311;50.866;4.332;2023-10-13T14:39:00;22.80;99.90
24152;DHT22;12311;50.866;4.332;2023-10-13T14:41:26;22.80;99.90
24152;DHT22;12311;50.866;4.332;2023-10-13T14:43:51;22.80;99.90
24152;DHT22;12311;50.866;4.332;2023-10-13T14:46:18;22.80;99.90
24152;DHT22;12311;50.866;4.332;2023-10-13T14:48:54;22.70;99.90
24152;DHT22;12311;50.866;4.332;2023-10-13T14:51:20;22.70;99.90
24152;DHT22;12311;50.866;4.332;2023-10-13T14:53:46;22.60;99.90
24152;DHT22;12311;50.866;4.332;2023-10-13T14:56:14;22.60;99.90
24152;DHT22;12311;50.866;4.332;2023-10-13T14:58:40;22.50;99.90
24152;DHT22;12311;50.866;4.332;2023-10-13T15:01:22;22.30;99.90
24152;DHT22;12311;50.866;4.332;2023-10-13T15:03:53;22.20;99.90
24152;DHT22;12311;50.866;4.332;2023-10-13T15:06:24;22.00;99.90
24152;DHT22;12311;50.866;4.332;2023-10-13T15:08:51;22.10;99.90
24152;DHT22;12311;50.866;4.332;2023-10-13T15:11:19;22.10;99.90
24152;DHT22;12311;50.866;4.332;2023-10-13T15:13:45;22.10;99.90
24152;DHT22;12311;50.866;4.332;2023-10-13T15:16:17;22.10;99.90
24152;DHT22;12311;50.866;4.332;2023-10-13T15:18:48;22.10;99.90
24152;DHT22;12311;50.866;4.332;2023-10-13T15:21:28;22.10;99.90
24152;DHT22;12311;50.866;4.332;2023-10-13T15:23:58;22.10;99.90
24152;DHT22;12311;50.866;4.332;2023-10-13T15:26:41;22.00;99.90
24152;DHT22;12311;50.866;4.332;2023-10-13T15:29:11;21.90;99.90
24152;DHT22;12311;50.866;4.332;2023-10-13T15:31:41;21.90;99.90
24152;DHT22;12311;50.866;4.332;2023-10-13T15:34:13;21.90;99.90
24152;DHT22;12311;50.866;4.332;2023-10-13T15:36:43;21.90;99.90
24152;DHT22;12311;50.866;4.332;2023-10-13T15:39:12;21.90;99.90
24152;DHT22;12311;50.866;4.332;2023-10-13T15:41:41;21.80;99.90
24152;DHT22;12311;50.866;4.332;2023-10-13T15:44:11;21.80;99.90
24152;DHT22;12311;50.866;4.332;2023-10-13T15:46:38;21.80;99.90
24152;DHT22;12311;50.866;4.332;2023-10-13T15:49:04;21.90;99.90
24152;DHT22;12311;50.866;4.332;2023-10-13T15:51:32;21.90;99.90
24152;DHT22;12311;50.866;4.332;2023-10-13T15:54:05;21.90;99.90
24152;DHT22;12311;50.866;4.332;2023-10-13T15:56:36;22.00;99.90
24152;DHT22;12311;50.866;4.332;2023-10-13T15:59:04;21.90;99.90
24152;DHT22;12311;50.866;4.332;2023-10-13T16:01:32;21.90;99.90
24152;DHT22;12311;50.866;4.332;2023-10-13T16:03:59;21.90;99.90
24152;DHT22;12311;50.866;4.332;2023-10-13T16:06:25;21.90;99.90
24152;DHT22;12311;50.866;4.332;2023-10-13T16:08:52;21.90;99.90
24152;DHT22;12311;50.866;4.332;2023-10-13T16:11:18;21.90;99.90
24152;DHT22;12311;50.866;4.332;2023-10-13T16:13:45;21.90;99.90
24152;DHT22;12311;50.866;4.332;2023-10-13T16:16:21;21.70;99.90
24152;DHT22;12311;50.866;4.332;2023-10-13T16:18:51;21.60;99.90
24152;DHT22;12311;50.866;4.332;2023-10-13T16:21:18;21.60;99.90
24152;DHT22;12311;50.866;4.332;2023-10-13T16:23:48;21.60;99.90
24152;DHT22;12311;50.866;4.332;2023-10-13T16:26:17;21.50;99.90
24152;DHT22;12311;50.866;4.332;2023-10-13T16:28:51;21.30;99.90
24152;DHT22;12311;50.866;4.332;2023-10-13T16:31:19;21.10;99.90